sensor_id;sensor_type;location;lat;lon;timestamp;P1;durP1;ratioP1;P2;durP2;ratioP2
65071;SDS011;51663;52.310;17.016;2023-05-10T00:05:51;9.83;;;6.67;;
65071;SDS011;51663;52.310;17.016;2023-05-10T00:08:54;22.60;;;7.33;;
65071;SDS011;51663;52.310;17.016;2023-05-10T00:11:56;9.90;;;6.67;;
65071;SDS011;51663;52.310;17.016;2023-05-10T00:15:00;10.80;;;7.20;;
65071;SDS011;51663;52.310;17.016;2023-05-10T00:18:02;10.83;;;7.00;;
65071;SDS011;51663;52.310;17.016;2023-05-10T00:21:05;7.77;;;6.30;;
65071;SDS011;51663;52.310;17.016;2023-05-10T00:24:07;11.03;;;6.20;;
65071;SDS011;51663;52.310;17.016;2023-05-10T00:27:10;9.67;;;6.37;;
65071;SDS011;51663;52.310;17.016;2023-05-10T00:30:12;9.47;;;6.47;;
65071;SDS011;51663;52.310;17.016;2023-05-10T00:33:15;10.07;;;6.53;;
65071;SDS011;51663;52.310;17.016;2023-05-10T00:36:18;6.57;;;5.70;;
65071;SDS011;51663;52.310;17.016;2023-05-10T00:39:20;7.73;;;6.13;;
65071;SDS011;51663;52.310;17.016;2023-05-10T00:42:23;8.93;;;6.33;;
65071;SDS011;51663;52.310;17.016;2023-05-10T00:45:25;7.27;;;5.90;;
65071;SDS011;51663;52.310;17.016;2023-05-10T00:48:28;9.63;;;6.40;;
65071;SDS011;51663;52.310;17.016;2023-05-10T00:51:31;11.87;;;6.57;;
65071;SDS011;51663;52.310;17.016;2023-05-10T00:54:33;6.80;;;6.10;;
65071;SDS011;51663;52.310;17.016;2023-05-10T00:57:36;8.40;;;6.07;;
65071;SDS011;51663;52.310;17.016;2023-05-10T01:00:38;7.37;;;6.43;;
65071;SDS011;51663;52.310;17.016;2023-05-10T01:03:45;11.10;;;6.77;;
65071;SDS011;51663;52.310;17.016;2023-05-10T01:06:48;9.67;;;7.33;;
65071;SDS011;51663;52.310;17.016;2023-05-10T01:09:50;11.13;;;7.07;;
65071;SDS011;51663;52.310;17.016;2023-05-10T01:12:53;10.30;;;6.87;;
65071;SDS011;51663;52.310;17.016;2023-05-10T01:15:56;9.73;;;6.67;;
65071;SDS011;51663;52.310;17.016;2023-05-10T01:18:59;10.17;;;7.00;;
65071;SDS011;51663;52.310;17.016;2023-05-10T01:25:11;10.80;;;6.73;;
65071;SDS011;51663;52.310;17.016;2023-05-10T01:35:18;13.23;;;6.97;;
65071;SDS011;51663;52.310;17.016;2023-05-10T01:38:40;9.20;;;7.30;;
65071;SDS011;51663;52.310;17.016;2023-05-10T01:41:49;7.73;;;6.67;;
65071;SDS011;51663;52.310;17.016;2023-05-10T01:45:03;7.53;;;6.70;;
65071;SDS011;51663;52.310;17.016;2023-05-10T01:48:24;10.90;;;7.20;;
65071;SDS011;51663;52.310;17.016;2023-05-10T01:51:30;7.90;;;7.10;;
65071;SDS011;51663;52.310;17.016;2023-05-10T01:54:43;11.37;;;8.10;;
65071;SDS011;51663;52.310;17.016;2023-05-10T01:57:51;9.20;;;7.73;;
65071;SDS011;51663;52.310;17.016;2023-05-10T02:01:01;8.70;;;7.63;;
65071;SDS011;51663;52.310;17.016;2023-05-10T02:04:07;8.20;;;6.83;;
65071;SDS011;51663;52.310;17.016;2023-05-10T02:07:11;11.00;;;7.33;;
65071;SDS011;51663;52.310;17.016;2023-05-10T02:10:15;11.07;;;7.47;;
65071;SDS011;51663;52.310;17.016;2023-05-10T02:13:20;10.13;;;7.80;;
65071;SDS011;51663;52.310;17.016;2023-05-10T02:16:25;12.37;;;8.37;;
65071;SDS011;51663;52.310;17.016;2023-05-10T02:19:29;15.87;;;8.30;;
65071;SDS011;51663;52.310;17.016;2023-05-10T02:22:33;10.97;;;7.93;;
65071;SDS011;51663;52.310;17.016;2023-05-10T02:25:37;9.83;;;7.50;;
65071;SDS011;51663;52.310;17.016;2023-05-10T02:28:41;11.13;;;7.63;;
65071;SDS011;51663;52.310;17.016;2023-05-10T02:31:45;16.87;;;8.43;;
65071;SDS011;51663;52.310;17.016;2023-05-10T02:34:48;11.50;;;7.93;;
65071;SDS011;51663;52.310;17.016;2023-05-10T02:37:53;10.03;;;7.20;;
65071;SDS011;51663;52.310;17.016;2023-05-10T02:40:57;11.37;;;7.03;;
65071;SDS011;51663;52.310;17.016;2023-05-10T02:44:01;12.83;;;6.93;;
65071;SDS011;51663;52.310;17.016;2023-05-10T02:47:05;10.07;;;6.97;;
65071;SDS011;51663;52.310;17.016;2023-05-10T02:50:07;12.63;;;6.97;;
65071;SDS011;51663;52.310;17.016;2023-05-10T02:53:10;9.03;;;6.43;;
65071;SDS011;51663;52.310;17.016;2023-05-10T02:56:20;8.97;;;6.90;;
65071;SDS011;51663;52.310;17.016;2023-05-10T02:59:27;11.93;;;6.47;;
65071;SDS011;51663;52.310;17.016;2023-05-10T03:02:30;10.27;;;6.70;;
65071;SDS011;51663;52.310;17.016;2023-05-10T03:05:32;11.27;;;7.23;;
65071;SDS011;51663;52.310;17.016;2023-05-10T03:08:35;11.60;;;6.90;;
65071;SDS011;51663;52.310;17.016;2023-05-10T03:11:50;10.97;;;7.03;;
65071;SDS011;51663;52.310;17.016;2023-05-10T03:15:02;10.43;;;7.63;;
65071;SDS011;51663;52.310;17.016;2023-05-10T03:18:28;13.63;;;7.97;;
65071;SDS011;51663;52.310;17.016;2023-05-10T03:21:40;17.33;;;7.90;;
65071;SDS011;51663;52.310;17.016;2023-05-10T03:24:45;13.00;;;7.83;;
65071;SDS011;51663;52.310;17.016;2023-05-10T03:27:49;8.67;;;7.43;;
65071;SDS011;51663;52.310;17.016;2023-05-10T03:30:53;10.77;;;7.97;;
65071;SDS011;51663;52.310;17.016;2023-05-10T03:33:57;9.70;;;7.53;;
65071;SDS011;51663;52.310;17.016;2023-05-10T03:36:59;10.73;;;7.00;;
65071;SDS011;51663;52.310;17.016;2023-05-10T03:40:02;14.67;;;7.63;;
65071;SDS011;51663;52.310;17.016;2023-05-10T03:43:05;17.40;;;7.50;;
65071;SDS011;51663;52.310;17.016;2023-05-10T03:46:07;10.30;;;8.00;;
65071;SDS011;51663;52.310;17.016;2023-05-10T03:49:09;11.23;;;8.13;;
65071;SDS011;51663;52.310;17.016;2023-05-10T03:52:12;9.63;;;7.63;;
65071;SDS011;51663;52.310;17.016;2023-05-10T03:55:14;9.17;;;7.53;;
65071;SDS011;51663;52.310;17.016;2023-05-10T03:58:18;11.83;;;7.93;;
65071;SDS011;51663;52.310;17.016;2023-05-10T04:01:20;11.03;;;7.53;;
65071;SDS011;51663;52.310;17.016;2023-05-10T04:04:23;21.23;;;8.37;;
65071;SDS011;51663;52.310;17.016;2023-05-10T04:07:25;12.47;;;7.40;;
65071;SDS011;51663;52.310;17.016;2023-05-10T04:10:28;9.40;;;7.43;;
65071;SDS011;51663;52.310;17.016;2023-05-10T04:13:30;11.67;;;7.57;;
65071;SDS011;51663;52.310;17.016;2023-05-10T04:16:32;12.60;;;7.37;;
65071;SDS011;51663;52.310;17.016;2023-05-10T04:19:35;8.50;;;7.70;;
65071;SDS011;51663;52.310;17.016;2023-05-10T04:22:38;14.20;;;7.40;;
65071;SDS011;51663;52.310;17.016;2023-05-10T04:25:41;11.37;;;7.20;;
65071;SDS011;51663;52.310;17.016;2023-05-10T04:28:43;11.67;;;7.20;;
65071;SDS011;51663;52.310;17.016;2023-05-10T04:31:46;13.17;;;6.97;;
65071;SDS011;51663;52.310;17.016;2023-05-10T04:34:49;8.83;;;6.83;;
65071;SDS011;51663;52.310;17.016;2023-05-10T04:37:52;11.20;;;6.57;;
65071;SDS011;51663;52.310;17.016;2023-05-10T04:41:03;13.03;;;7.40;;
65071;SDS011;51663;52.310;17.016;2023-05-10T04:44:06;14.47;;;6.77;;
65071;SDS011;51663;52.310;17.016;2023-05-10T04:47:09;9.15;;;6.47;;
65071;SDS011;51663;52.310;17.016;2023-05-10T04:50:13;11.50;;;6.07;;
65071;SDS011;51663;52.310;17.016;2023-05-10T04:53:15;7.68;;;6.07;;
65071;SDS011;51663;52.310;17.016;2023-05-10T04:56:18;10.45;;;6.45;;
65071;SDS011;51663;52.310;17.016;2023-05-10T04:59:20;7.15;;;6.40;;
65071;SDS011;51663;52.310;17.016;2023-05-10T05:02:22;8.20;;;6.15;;
65071;SDS011;51663;52.310;17.016;2023-05-10T05:05:25;6.68;;;5.85;;
65071;SDS011;51663;52.310;17.016;2023-05-10T05:08:27;10.73;;;6.70;;
65071;SDS011;51663;52.310;17.016;2023-05-10T05:11:29;6.97;;;6.28;;
65071;SDS011;51663;52.310;17.016;2023-05-10T05:14:32;9.55;;;6.45;;
65071;SDS011;51663;52.310;17.016;2023-05-10T05:17:34;9.27;;;6.18;;
65071;SDS011;51663;52.310;17.016;2023-05-10T05:20:36;13.18;;;6.35;;
65071;SDS011;51663;52.310;17.016;2023-05-10T05:23:39;10.85;;;6.45;;
65071;SDS011;51663;52.310;17.016;2023-05-10T05:26:41;31.67;;;7.72;;
65071;SDS011;51663;52.310;17.016;2023-05-10T05:29:44;11.27;;;6.32;;
65071;SDS011;51663;52.310;17.016;2023-05-10T05:32:46;6.75;;;5.88;;
65071;SDS011;51663;52.310;17.016;2023-05-10T05:35:51;25.30;;;6.88;;
65071;SDS011;51663;52.310;17.016;2023-05-10T05:38:54;6.22;;;5.63;;
65071;SDS011;51663;52.310;17.016;2023-05-10T05:41:59;11.75;;;6.55;;
65071;SDS011;51663;52.310;17.016;2023-05-10T05:45:01;8.10;;;5.95;;
65071;SDS011;51663;52.310;17.016;2023-05-10T05:48:03;12.07;;;6.18;;
65071;SDS011;51663;52.310;17.016;2023-05-10T05:51:05;8.38;;;5.85;;
65071;SDS011;51663;52.310;17.016;2023-05-10T05:54:08;13.45;;;5.82;;
65071;SDS011;51663;52.310;17.016;2023-05-10T05:57:10;7.30;;;6.15;;
65071;SDS011;51663;52.310;17.016;2023-05-10T06:00:12;7.55;;;5.57;;
65071;SDS011;51663;52.310;17.016;2023-05-10T06:03:15;10.57;;;5.72;;
65071;SDS011;51663;52.310;17.016;2023-05-10T06:23:50;8.55;;;6.32;;
65071;SDS011;51663;52.310;17.016;2023-05-10T06:26:52;7.13;;;5.72;;
65071;SDS011;51663;52.310;17.016;2023-05-10T06:29:54;9.73;;;6.22;;
65071;SDS011;51663;52.310;17.016;2023-05-10T06:33:06;7.00;;;6.05;;
65071;SDS011;51663;52.310;17.016;2023-05-10T06:36:08;28.23;;;6.80;;
65071;SDS011;51663;52.310;17.016;2023-05-10T06:39:10;14.95;;;6.70;;
65071;SDS011;51663;52.310;17.016;2023-05-10T06:42:13;6.20;;;5.60;;
65071;SDS011;51663;52.310;17.016;2023-05-10T06:45:15;6.90;;;5.13;;
65071;SDS011;51663;52.310;17.016;2023-05-10T06:48:18;11.20;;;5.95;;
65071;SDS011;51663;52.310;17.016;2023-05-10T06:51:20;18.05;;;6.20;;
65071;SDS011;51663;52.310;17.016;2023-05-10T06:54:22;8.40;;;5.63;;
65071;SDS011;51663;52.310;17.016;2023-05-10T06:57:24;5.75;;;5.28;;
65071;SDS011;51663;52.310;17.016;2023-05-10T07:00:32;39.85;;;7.63;;
65071;SDS011;51663;52.310;17.016;2023-05-10T07:03:35;6.30;;;5.03;;
65071;SDS011;51663;52.310;17.016;2023-05-10T07:06:37;7.03;;;5.57;;
65071;SDS011;51663;52.310;17.016;2023-05-10T07:09:39;15.35;;;5.78;;
65071;SDS011;51663;52.310;17.016;2023-05-10T07:12:41;8.43;;;5.55;;
65071;SDS011;51663;52.310;17.016;2023-05-10T07:15:43;7.72;;;5.63;;
65071;SDS011;51663;52.310;17.016;2023-05-10T07:18:45;6.60;;;5.20;;
65071;SDS011;51663;52.310;17.016;2023-05-10T07:21:48;5.60;;;4.82;;
65071;SDS011;51663;52.310;17.016;2023-05-10T07:24:50;8.48;;;4.78;;
65071;SDS011;51663;52.310;17.016;2023-05-10T07:27:53;5.30;;;4.70;;
65071;SDS011;51663;52.310;17.016;2023-05-10T07:30:55;12.68;;;6.20;;
65071;SDS011;51663;52.310;17.016;2023-05-10T07:33:57;8.68;;;4.72;;
65071;SDS011;51663;52.310;17.016;2023-05-10T07:36:59;5.03;;;4.63;;
65071;SDS011;51663;52.310;17.016;2023-05-10T07:40:02;9.23;;;4.97;;
65071;SDS011;51663;52.310;17.016;2023-05-10T07:43:04;5.72;;;4.82;;
65071;SDS011;51663;52.310;17.016;2023-05-10T07:46:07;4.80;;;4.30;;
65071;SDS011;51663;52.310;17.016;2023-05-10T07:49:11;9.70;;;4.28;;
65071;SDS011;51663;52.310;17.016;2023-05-10T07:52:13;4.28;;;3.97;;
65071;SDS011;51663;52.310;17.016;2023-05-10T07:55:18;5.03;;;4.43;;
65071;SDS011;51663;52.310;17.016;2023-05-10T07:58:24;4.68;;;4.10;;
65071;SDS011;51663;52.310;17.016;2023-05-10T08:01:26;37.33;;;7.00;;
65071;SDS011;51663;52.310;17.016;2023-05-10T08:04:31;5.32;;;4.57;;
65071;SDS011;51663;52.310;17.016;2023-05-10T08:07:33;4.97;;;4.22;;
65071;SDS011;51663;52.310;17.016;2023-05-10T08:10:36;5.30;;;4.80;;
65071;SDS011;51663;52.310;17.016;2023-05-10T08:13:38;4.38;;;4.00;;
65071;SDS011;51663;52.310;17.016;2023-05-10T08:16:40;7.80;;;4.05;;
65071;SDS011;51663;52.310;17.016;2023-05-10T08:19:42;13.65;;;4.63;;
65071;SDS011;51663;52.310;17.016;2023-05-10T08:22:45;4.55;;;4.15;;
65071;SDS011;51663;52.310;17.016;2023-05-10T08:25:49;8.73;;;7.45;;
65071;SDS011;51663;52.310;17.016;2023-05-10T08:28:52;8.88;;;4.78;;
65071;SDS011;51663;52.310;17.016;2023-05-10T08:31:54;3.80;;;3.58;;
65071;SDS011;51663;52.310;17.016;2023-05-10T08:34:56;5.88;;;4.25;;
65071;SDS011;51663;52.310;17.016;2023-05-10T08:37:58;5.82;;;3.83;;
65071;SDS011;51663;52.310;17.016;2023-05-10T08:41:00;8.18;;;4.38;;
65071;SDS011;51663;52.310;17.016;2023-05-10T08:44:03;5.32;;;4.05;;
65071;SDS011;51663;52.310;17.016;2023-05-10T08:47:07;5.68;;;3.72;;
65071;SDS011;51663;52.310;17.016;2023-05-10T08:50:11;9.45;;;3.83;;
65071;SDS011;51663;52.310;17.016;2023-05-10T08:53:15;6.75;;;2.85;;
65071;SDS011;51663;52.310;17.016;2023-05-10T08:56:18;3.97;;;3.22;;
65071;SDS011;51663;52.310;17.016;2023-05-10T08:59:22;3.10;;;2.90;;
65071;SDS011;51663;52.310;17.016;2023-05-10T09:02:24;3.78;;;3.10;;
65071;SDS011;51663;52.310;17.016;2023-05-10T09:05:27;13.68;;;3.15;;
65071;SDS011;51663;52.310;17.016;2023-05-10T09:08:29;4.57;;;2.67;;
65071;SDS011;51663;52.310;17.016;2023-05-10T09:11:32;7.82;;;2.75;;
65071;SDS011;51663;52.310;17.016;2023-05-10T09:14:35;7.47;;;3.13;;
65071;SDS011;51663;52.310;17.016;2023-05-10T09:17:41;3.22;;;3.00;;
65071;SDS011;51663;52.310;17.016;2023-05-10T09:20:44;4.53;;;2.33;;
65071;SDS011;51663;52.310;17.016;2023-05-10T09:23:47;4.45;;;2.63;;
65071;SDS011;51663;52.310;17.016;2023-05-10T09:26:51;3.47;;;2.22;;
65071;SDS011;51663;52.310;17.016;2023-05-10T09:29:53;6.22;;;2.58;;
65071;SDS011;51663;52.310;17.016;2023-05-10T09:32:57;3.40;;;2.50;;
65071;SDS011;51663;52.310;17.016;2023-05-10T09:36:06;8.30;;;2.72;;
65071;SDS011;51663;52.310;17.016;2023-05-10T09:39:09;9.02;;;2.33;;
65071;SDS011;51663;52.310;17.016;2023-05-10T09:42:11;14.55;;;2.95;;
65071;SDS011;51663;52.310;17.016;2023-05-10T09:45:13;13.63;;;3.17;;
65071;SDS011;51663;52.310;17.016;2023-05-10T09:48:16;6.05;;;2.47;;
65071;SDS011;51663;52.310;17.016;2023-05-10T09:51:19;7.70;;;2.42;;
65071;SDS011;51663;52.310;17.016;2023-05-10T09:54:25;3.95;;;2.30;;
65071;SDS011;51663;52.310;17.016;2023-05-10T09:57:27;4.93;;;2.90;;
65071;SDS011;51663;52.310;17.016;2023-05-10T10:00:34;5.63;;;2.00;;
65071;SDS011;51663;52.310;17.016;2023-05-10T10:03:41;5.72;;;2.45;;
65071;SDS011;51663;52.310;17.016;2023-05-10T10:06:45;6.05;;;1.95;;
65071;SDS011;51663;52.310;17.016;2023-05-10T10:09:47;18.13;;;3.17;;
65071;SDS011;51663;52.310;17.016;2023-05-10T10:12:49;2.72;;;2.25;;
65071;SDS011;51663;52.310;17.016;2023-05-10T10:15:52;5.93;;;2.22;;
65071;SDS011;51663;52.310;17.016;2023-05-10T10:18:56;4.28;;;2.15;;
65071;SDS011;51663;52.310;17.016;2023-05-10T10:21:59;3.08;;;2.30;;
65071;SDS011;51663;52.310;17.016;2023-05-10T10:25:02;3.55;;;2.65;;
65071;SDS011;51663;52.310;17.016;2023-05-10T10:28:09;34.85;;;3.88;;
65071;SDS011;51663;52.310;17.016;2023-05-10T10:31:36;4.05;;;2.35;;
65071;SDS011;51663;52.310;17.016;2023-05-10T10:34:43;3.17;;;2.10;;
65071;SDS011;51663;52.310;17.016;2023-05-10T10:37:46;2.95;;;2.55;;
65071;SDS011;51663;52.310;17.016;2023-05-10T10:41:10;7.53;;;2.47;;
65071;SDS011;51663;52.310;17.016;2023-05-10T10:47:36;4.72;;;2.25;;
65071;SDS011;51663;52.310;17.016;2023-05-10T10:50:45;16.38;;;3.15;;
65071;SDS011;51663;52.310;17.016;2023-05-10T10:53:48;5.10;;;3.70;;
65071;SDS011;51663;52.310;17.016;2023-05-10T10:57:09;58.45;;;5.57;;
65071;SDS011;51663;52.310;17.016;2023-05-10T11:00:19;20.35;;;3.05;;
65071;SDS011;51663;52.310;17.016;2023-05-10T11:03:32;10.30;;;2.70;;
65071;SDS011;51663;52.310;17.016;2023-05-10T11:06:35;2.92;;;2.65;;
65071;SDS011;51663;52.310;17.016;2023-05-10T11:09:40;4.30;;;2.15;;
65071;SDS011;51663;52.310;17.016;2023-05-10T11:13:01;8.25;;;2.50;;
65071;SDS011;51663;52.310;17.016;2023-05-10T11:16:13;4.95;;;2.55;;
65071;SDS011;51663;52.310;17.016;2023-05-10T11:19:21;6.15;;;2.60;;
65071;SDS011;51663;52.310;17.016;2023-05-10T11:22:28;3.65;;;2.22;;
65071;SDS011;51663;52.310;17.016;2023-05-10T11:25:32;2.53;;;2.22;;
65071;SDS011;51663;52.310;17.016;2023-05-10T11:28:44;2.90;;;2.63;;
65071;SDS011;51663;52.310;17.016;2023-05-10T11:31:47;5.10;;;2.47;;
65071;SDS011;51663;52.310;17.016;2023-05-10T11:34:51;3.88;;;2.67;;
65071;SDS011;51663;52.310;17.016;2023-05-10T11:37:53;4.93;;;2.47;;
65071;SDS011;51663;52.310;17.016;2023-05-10T11:40:55;15.77;;;4.40;;
65071;SDS011;51663;52.310;17.016;2023-05-10T11:43:57;10.15;;;3.13;;
65071;SDS011;51663;52.310;17.016;2023-05-10T11:47:02;5.13;;;2.70;;
65071;SDS011;51663;52.310;17.016;2023-05-10T11:50:05;10.57;;;3.30;;
65071;SDS011;51663;52.310;17.016;2023-05-10T11:53:07;3.13;;;2.60;;
65071;SDS011;51663;52.310;17.016;2023-05-10T11:56:10;4.53;;;2.65;;
65071;SDS011;51663;52.310;17.016;2023-05-10T11:59:13;5.50;;;2.85;;
65071;SDS011;51663;52.310;17.016;2023-05-10T12:02:16;4.07;;;2.50;;
65071;SDS011;51663;52.310;17.016;2023-05-10T12:05:18;4.75;;;2.40;;
65071;SDS011;51663;52.310;17.016;2023-05-10T12:08:22;4.30;;;2.80;;
65071;SDS011;51663;52.310;17.016;2023-05-10T12:11:27;2.80;;;2.60;;
65071;SDS011;51663;52.310;17.016;2023-05-10T12:14:33;33.70;;;5.35;;
65071;SDS011;51663;52.310;17.016;2023-05-10T12:17:37;10.45;;;3.90;;
65071;SDS011;51663;52.310;17.016;2023-05-10T12:20:43;3.88;;;3.28;;
65071;SDS011;51663;52.310;17.016;2023-05-10T12:23:50;4.03;;;2.63;;
65071;SDS011;51663;52.310;17.016;2023-05-10T12:26:53;4.28;;;2.42;;
65071;SDS011;51663;52.310;17.016;2023-05-10T12:29:58;3.38;;;2.70;;
65071;SDS011;51663;52.310;17.016;2023-05-10T12:36:13;4.03;;;2.78;;
65071;SDS011;51663;52.310;17.016;2023-05-10T12:39:16;8.32;;;2.97;;
65071;SDS011;51663;52.310;17.016;2023-05-10T12:42:18;12.00;;;3.20;;
65071;SDS011;51663;52.310;17.016;2023-05-10T12:45:21;2.88;;;2.33;;
65071;SDS011;51663;52.310;17.016;2023-05-10T12:48:23;6.32;;;2.38;;
65071;SDS011;51663;52.310;17.016;2023-05-10T12:51:25;4.57;;;2.60;;
65071;SDS011;51663;52.310;17.016;2023-05-10T12:54:28;3.95;;;3.25;;
65071;SDS011;51663;52.310;17.016;2023-05-10T12:57:30;5.95;;;2.80;;
65071;SDS011;51663;52.310;17.016;2023-05-10T13:00:32;2.78;;;2.58;;
65071;SDS011;51663;52.310;17.016;2023-05-10T13:03:34;3.35;;;3.05;;
65071;SDS011;51663;52.310;17.016;2023-05-10T13:06:37;5.90;;;2.72;;
65071;SDS011;51663;52.310;17.016;2023-05-10T13:09:39;6.65;;;3.22;;
65071;SDS011;51663;52.310;17.016;2023-05-10T13:12:42;7.78;;;3.28;;
65071;SDS011;51663;52.310;17.016;2023-05-10T13:15:45;5.47;;;2.58;;
65071;SDS011;51663;52.310;17.016;2023-05-10T13:18:52;2.90;;;2.60;;
65071;SDS011;51663;52.310;17.016;2023-05-10T13:21:54;6.93;;;2.97;;
65071;SDS011;51663;52.310;17.016;2023-05-10T13:24:56;7.15;;;3.25;;
65071;SDS011;51663;52.310;17.016;2023-05-10T13:27:58;7.65;;;3.03;;
65071;SDS011;51663;52.310;17.016;2023-05-10T13:31:01;3.03;;;2.50;;
65071;SDS011;51663;52.310;17.016;2023-05-10T13:34:03;3.97;;;2.40;;
65071;SDS011;51663;52.310;17.016;2023-05-10T13:37:07;6.30;;;2.92;;
65071;SDS011;51663;52.310;17.016;2023-05-10T13:40:09;21.27;;;3.70;;
65071;SDS011;51663;52.310;17.016;2023-05-10T13:43:12;10.73;;;3.20;;
65071;SDS011;51663;52.310;17.016;2023-05-10T13:46:14;3.70;;;2.97;;
65071;SDS011;51663;52.310;17.016;2023-05-10T13:49:17;5.88;;;3.50;;
65071;SDS011;51663;52.310;17.016;2023-05-10T13:52:19;8.10;;;3.10;;
65071;SDS011;51663;52.310;17.016;2023-05-10T13:55:21;3.70;;;2.90;;
65071;SDS011;51663;52.310;17.016;2023-05-10T13:58:23;9.77;;;3.40;;
65071;SDS011;51663;52.310;17.016;2023-05-10T14:01:26;16.90;;;3.47;;
65071;SDS011;51663;52.310;17.016;2023-05-10T14:04:29;7.53;;;3.33;;
65071;SDS011;51663;52.310;17.016;2023-05-10T14:07:32;3.70;;;2.78;;
65071;SDS011;51663;52.310;17.016;2023-05-10T14:10:34;6.10;;;3.03;;
65071;SDS011;51663;52.310;17.016;2023-05-10T14:13:37;3.42;;;3.08;;
65071;SDS011;51663;52.310;17.016;2023-05-10T14:16:41;13.55;;;3.47;;
65071;SDS011;51663;52.310;17.016;2023-05-10T14:19:45;13.98;;;3.45;;
65071;SDS011;51663;52.310;17.016;2023-05-10T14:22:47;6.20;;;3.00;;
65071;SDS011;51663;52.310;17.016;2023-05-10T14:25:50;16.45;;;3.42;;
65071;SDS011;51663;52.310;17.016;2023-05-10T14:28:53;7.75;;;3.53;;
65071;SDS011;51663;52.310;17.016;2023-05-10T14:31:55;4.78;;;3.20;;
65071;SDS011;51663;52.310;17.016;2023-05-10T14:34:57;17.15;;;4.60;;
65071;SDS011;51663;52.310;17.016;2023-05-10T14:38:01;81.72;;;13.23;;
65071;SDS011;51663;52.310;17.016;2023-05-10T14:41:04;9.55;;;4.18;;
65071;SDS011;51663;52.310;17.016;2023-05-10T14:44:07;4.93;;;3.45;;
65071;SDS011;51663;52.310;17.016;2023-05-10T14:47:09;13.98;;;3.75;;
65071;SDS011;51663;52.310;17.016;2023-05-10T14:50:13;14.73;;;3.50;;
65071;SDS011;51663;52.310;17.016;2023-05-10T14:53:35;3.30;;;2.80;;
65071;SDS011;51663;52.310;17.016;2023-05-10T14:56:38;4.28;;;3.08;;
65071;SDS011;51663;52.310;17.016;2023-05-10T14:59:40;3.35;;;2.60;;
65071;SDS011;51663;52.310;17.016;2023-05-10T15:02:43;5.05;;;3.20;;
65071;SDS011;51663;52.310;17.016;2023-05-10T15:05:46;4.72;;;3.35;;
65071;SDS011;51663;52.310;17.016;2023-05-10T15:08:48;8.70;;;3.15;;
65071;SDS011;51663;52.310;17.016;2023-05-10T15:11:51;3.70;;;3.10;;
65071;SDS011;51663;52.310;17.016;2023-05-10T15:14:53;3.45;;;3.13;;
65071;SDS011;51663;52.310;17.016;2023-05-10T15:17:55;5.13;;;3.40;;
65071;SDS011;51663;52.310;17.016;2023-05-10T15:37:08;5.40;;;3.40;;
65071;SDS011;51663;52.310;17.016;2023-05-10T15:40:11;9.68;;;3.75;;
65071;SDS011;51663;52.310;17.016;2023-05-10T15:43:13;5.68;;;3.10;;
65071;SDS011;51663;52.310;17.016;2023-05-10T15:46:16;8.88;;;3.63;;
65071;SDS011;51663;52.310;17.016;2023-05-10T15:49:18;6.13;;;3.08;;
65071;SDS011;51663;52.310;17.016;2023-05-10T15:52:21;4.60;;;3.35;;
65071;SDS011;51663;52.310;17.016;2023-05-10T15:55:24;4.93;;;3.25;;
65071;SDS011;51663;52.310;17.016;2023-05-10T15:58:27;5.00;;;3.10;;
65071;SDS011;51663;52.310;17.016;2023-05-10T16:01:29;4.00;;;3.10;;
65071;SDS011;51663;52.310;17.016;2023-05-10T16:04:33;3.63;;;3.20;;
65071;SDS011;51663;52.310;17.016;2023-05-10T16:07:35;5.75;;;3.20;;
65071;SDS011;51663;52.310;17.016;2023-05-10T16:10:37;8.75;;;3.63;;
65071;SDS011;51663;52.310;17.016;2023-05-10T16:13:39;13.68;;;3.85;;
65071;SDS011;51663;52.310;17.016;2023-05-10T16:16:42;12.98;;;3.90;;
65071;SDS011;51663;52.310;17.016;2023-05-10T16:19:44;7.28;;;3.50;;
65071;SDS011;51663;52.310;17.016;2023-05-10T16:22:48;10.50;;;5.95;;
65071;SDS011;51663;52.310;17.016;2023-05-10T16:25:50;4.07;;;3.03;;
65071;SDS011;51663;52.310;17.016;2023-05-10T16:28:52;10.75;;;3.20;;
65071;SDS011;51663;52.310;17.016;2023-05-10T16:31:54;22.17;;;4.53;;
65071;SDS011;51663;52.310;17.016;2023-05-10T16:34:57;5.75;;;3.28;;
65071;SDS011;51663;52.310;17.016;2023-05-10T16:38:00;11.18;;;3.53;;
65071;SDS011;51663;52.310;17.016;2023-05-10T16:41:02;6.82;;;3.58;;
65071;SDS011;51663;52.310;17.016;2023-05-10T16:44:04;3.35;;;3.05;;
65071;SDS011;51663;52.310;17.016;2023-05-10T16:47:07;3.78;;;3.47;;
65071;SDS011;51663;52.310;17.016;2023-05-10T16:50:09;5.07;;;3.58;;
65071;SDS011;51663;52.310;17.016;2023-05-10T16:53:12;6.88;;;3.10;;
65071;SDS011;51663;52.310;17.016;2023-05-10T16:56:14;15.50;;;3.88;;
65071;SDS011;51663;52.310;17.016;2023-05-10T16:59:18;4.88;;;2.97;;
65071;SDS011;51663;52.310;17.016;2023-05-10T17:02:21;5.68;;;3.17;;
65071;SDS011;51663;52.310;17.016;2023-05-10T17:05:24;7.10;;;3.38;;
65071;SDS011;51663;52.310;17.016;2023-05-10T17:08:26;3.15;;;2.92;;
65071;SDS011;51663;52.310;17.016;2023-05-10T17:11:29;4.80;;;3.20;;
65071;SDS011;51663;52.310;17.016;2023-05-10T17:14:31;19.63;;;4.43;;
65071;SDS011;51663;52.310;17.016;2023-05-10T17:17:33;5.13;;;3.58;;
65071;SDS011;51663;52.310;17.016;2023-05-10T17:20:35;3.25;;;2.95;;
65071;SDS011;51663;52.310;17.016;2023-05-10T17:23:38;3.40;;;3.10;;
65071;SDS011;51663;52.310;17.016;2023-05-10T17:26:40;5.25;;;3.38;;
65071;SDS011;51663;52.310;17.016;2023-05-10T17:29:42;7.38;;;3.17;;
65071;SDS011;51663;52.310;17.016;2023-05-10T17:32:44;8.75;;;4.20;;
65071;SDS011;51663;52.310;17.016;2023-05-10T17:35:46;6.22;;;3.50;;
65071;SDS011;51663;52.310;17.016;2023-05-10T17:38:49;7.18;;;3.50;;
65071;SDS011;51663;52.310;17.016;2023-05-10T17:41:52;7.95;;;4.03;;
65071;SDS011;51663;52.310;17.016;2023-05-10T17:44:54;6.60;;;3.80;;
65071;SDS011;51663;52.310;17.016;2023-05-10T17:47:56;5.57;;;4.20;;
65071;SDS011;51663;52.310;17.016;2023-05-10T17:50:59;4.80;;;3.50;;
65071;SDS011;51663;52.310;17.016;2023-05-10T17:54:01;7.20;;;3.50;;
65071;SDS011;51663;52.310;17.016;2023-05-10T17:57:03;3.58;;;3.28;;
65071;SDS011;51663;52.310;17.016;2023-05-10T18:00:06;4.30;;;3.35;;
65071;SDS011;51663;52.310;17.016;2023-05-10T18:03:10;3.88;;;3.15;;
65071;SDS011;51663;52.310;17.016;2023-05-10T18:06:12;6.10;;;3.33;;
65071;SDS011;51663;52.310;17.016;2023-05-10T18:09:14;8.40;;;4.20;;
65071;SDS011;51663;52.310;17.016;2023-05-10T18:12:18;11.10;;;7.22;;
65071;SDS011;51663;52.310;17.016;2023-05-10T18:15:20;4.95;;;4.53;;
65071;SDS011;51663;52.310;17.016;2023-05-10T18:18:22;9.52;;;4.43;;
65071;SDS011;51663;52.310;17.016;2023-05-10T18:21:24;9.43;;;4.68;;
65071;SDS011;51663;52.310;17.016;2023-05-10T18:24:27;5.72;;;4.43;;
65071;SDS011;51663;52.310;17.016;2023-05-10T18:27:40;6.78;;;4.07;;
65071;SDS011;51663;52.310;17.016;2023-05-10T18:30:42;9.50;;;4.25;;
65071;SDS011;51663;52.310;17.016;2023-05-10T18:33:44;10.60;;;4.57;;
65071;SDS011;51663;52.310;17.016;2023-05-10T18:36:47;6.40;;;4.03;;
65071;SDS011;51663;52.310;17.016;2023-05-10T18:39:49;7.57;;;4.28;;
65071;SDS011;51663;52.310;17.016;2023-05-10T18:42:51;6.75;;;4.60;;
